NEW MELONES RESERVOIR (NML)

Elevation: 1135' · STANISLAUS R basin · Operator: US Bureau of Reclamation

Provisional data, subject to change.
Query executed Thursday at 5:01:46   clock

Select a sensor type for a plot of data.
Note: Reservoir Flows are daily averages.

Earlier

Date RES ELE    STORAGE    RES CHG    TOC STO    ABV TOC    OUTFLOW    INFLOW    EVAP    FNF    RIV REL    PPT INC    SPILL    DIS PWR   
 FEET   AF   AF   AF   AF   CFS   CFS   CFS   CFS   CFS   INCHES   CFS   CFS  
10/01/2014 861.92 520392 669 2263500 -1743108 13 378 28 188 0 0.00 0 13
10/02/2014 862.10 521254 862 2253700 -1732446 17 499 47 265 0 0.00 0 17
10/03/2014 861.94 520487 -767 2243900 -1723413 865 535 57 295 0 0.00 0 865
10/04/2014 861.83 519962 -525 2234100 -1714138 720 497 42 261 0 0.00 0 720
10/05/2014 861.72 519436 -526 2224300 -1704864 705 491 51 242 0 0.00 0 705
10/06/2014 861.61 518911 -525 2214600 -1695689 796 590 59 324 0 0.00 0 796
10/07/2014 861.50 518385 -526 2204800 -1686415 831 612 46 257 0 0.00 0 831
10/08/2014 861.36 517716 -669 2195000 -1677284 881 592 48 269 0 0.00 0 881
10/09/2014 861.17 516808 -908 2185200 -1668392 969 570 59 234 0 0.00 0 969
10/10/2014 861.16 516760 -48 2175400 -1658640 541 562 45 225 0 0.00 0 541
10/11/2014 861.28 517334 574 2165700 -1648366 229 563 45 222 0 0.00 0 229
10/12/2014 861.40 517907 573 2155870 -1637993 232 591 70 261 0 0.00 0 232
10/13/2014 861.53 518528 621 2146087 -1627572 222 575 40 249 0 0.00 0 222
10/14/2014 861.74 519532 1004 2136304 -1616768 83 629 40 287 0 0.00 0 83
10/15/2014 861.98 520678 1146 2126522 -1605844 r 34 649 37 314 0 0.00 0 34
10/16/2014 862.23 521879 1201 2116739 -1594860 23 657 29 320 0 0.00 0 23
10/17/2014 862.44 522888 1009 2106956 -1584068 95 632 28 285 0 0.00 0 95
10/18/2014 862.60 523656 768 2097174 -1573518 199 608 22 291 0 0.00 0 199
10/19/2014 862.80 524617 961 2087391 -1562774 108 623 31 293 0 0.00 0 108
10/20/2014 862.94 525290 673 2077609 -1552319 64 437 34 277 0 0.00 0 64
10/21/2014 862.62 523752 -1538 2067826 -1544074 845 89 19 83 0 0.01 0 845
10/22/2014 862.56 523464 -288 2058044 -1534580 288 180 37 172 0 0.00 0 288
10/23/2014 862.63 523801 337 2048261 -1524460 39 242 33 229 0 0.00 0 39
10/24/2014 862.35 522455 -1346 2038478 -1516023 901 252 30 234 0 0.00 0 901
10/25/2014 862.03 520918 -1537 2028696 -1507778 1070 326 31 324 0 0.00 0 1070
10/26/2014 861.74 519532 -1386 2018913 -1499381 873 179 5 173 0 0.44 0 873
10/27/2014 861.18 516856 -2676 2009130 -1492274 1606 272 15 262 0 0.00 0 1606
10/28/2014 860.80 515046 -1810 1999348 -1484302 1117 224 20 220 0 0.00 0 1117
10/29/2014 860.57 513954 -1092 1989565 -- 848 317 20 306 0 0.00 0 848
10/30/2014 -- -- -- -- -- -- -- -- -- -- -- -- --

Later | Latest

Warning! This data is preliminary and subject to revision.

Show NML Map | Plot NML Data | 1 Month NML Data | Real-Time NML Data | NML Info